Time;durP1;ratioP1;P1;durP2;ratioP2;P2;SDS_P1;SDS_P2;PMS_P1;PMS_P2;Temp;Humidity;BMP_temperature;BMP_pressure;BME280_temperature;BME280_humidity;BME280_pressure;Samples;Min_cycle;Max_cycle;Signal;HPM_P1;HPM_P2
2022/01/14 00:02:14;;;;;;;27.98;11.45;;;;;;;;;;5081263;28;20044;-59
2022/01/14 00:04:41;;;;;;;32.72;11.27;;;;;;;;;;5066436;28;20044;-59
2022/01/14 00:07:12;;;;;;;33.83;10.85;;;;;;;;;;5033957;28;20039;-59
2022/01/14 00:09:44;;;;;;;34.70;11.25;;;;;;;;;;5067763;28;20031;-60
2022/01/14 00:12:15;;;;;;;27.63;11.20;;;;;;;;;;5051126;28;20087;-59
2022/01/14 00:14:56;;;;;;;28.70;11.23;;;;;;;;;;5063707;28;20792;-59
2022/01/14 00:17:21;;;;;;;25.40;10.38;;;;;;;;;;5083253;28;20042;-59
2022/01/14 00:19:47;;;;;;;35.95;10.90;;;;;;;;;;5084153;28;21084;-59
2022/01/14 00:22:15;;;;;;;23.20;9.75;;;;;;;;;;5081068;27;20047;-58
2022/01/14 00:33:05;;;;;;;43.75;11.95;;;;;;;;;;5066515;28;20024;-59
2022/01/14 00:35:31;;;;;;;23.80;9.88;;;;;;;;;;5070644;28;20561;-60
2022/01/14 00:38:00;;;;;;;27.52;10.45;;;;;;;;;;5080785;27;20080;-59
2022/01/14 00:40:25;;;;;;;38.55;10.98;;;;;;;;;;5083631;28;20031;-61
2022/01/14 00:42:53;;;;;;;35.33;10.85;;;;;;;;;;5064582;28;20028;-61
2022/01/14 00:45:19;;;;;;;35.42;10.88;;;;;;;;;;5081399;28;20069;-59
2022/01/14 00:47:48;;;;;;;41.83;10.77;;;;;;;;;;5066663;28;20035;-59
2022/01/14 00:50:17;;;;;;;28.13;10.70;;;;;;;;;;5047123;28;20032;-61
2022/01/14 00:52:45;;;;;;;35.08;10.32;;;;;;;;;;5062541;28;20147;-59
2022/01/14 00:55:14;;;;;;;38.42;10.90;;;;;;;;;;5081193;27;20094;-61
2022/01/14 01:00:35;;;;;;;26.02;10.00;;;;;;;;;;5083235;28;20035;-60
2022/01/14 01:03:08;;;;;;;32.15;10.40;;;;;;;;;;5082680;28;20030;-60
2022/01/14 01:05:33;;;;;;;31.27;10.50;;;;;;;;;;5064466;28;20044;-60
2022/01/14 01:08:10;;;;;;;27.42;10.30;;;;;;;;;;5051778;28;22018;-59
2022/01/14 01:10:46;;;;;;;26.75;9.18;;;;;;;;;;5067440;28;20031;-59
2022/01/14 01:13:22;;;;;;;39.38;11.73;;;;;;;;;;5077836;28;20039;-60
2022/01/14 01:15:53;;;;;;;34.75;10.63;;;;;;;;;;5047247;28;20058;-58
2022/01/14 01:18:24;;;;;;;28.50;11.60;;;;;;;;;;5065076;28;20039;-59
2022/01/14 01:20:57;;;;;;;27.35;10.55;;;;;;;;;;5081759;28;20028;-59
2022/01/14 01:23:25;;;;;;;35.63;11.82;;;;;;;;;;5066103;28;20789;-59
2022/01/14 01:26:10;;;;;;;27.58;10.57;;;;;;;;;;5082038;28;20035;-59
2022/01/14 01:28:55;;;;;;;29.88;10.98;;;;;;;;;;5030864;28;20051;-59
2022/01/14 01:31:35;;;;;;;27.42;10.48;;;;;;;;;;5046685;28;20919;-59
2022/01/14 01:34:21;;;;;;;30.17;11.30;;;;;;;;;;5082448;28;20285;-59
2022/01/14 01:36:52;;;;;;;38.90;10.98;;;;;;;;;;5081296;28;20134;-59
2022/01/14 01:39:19;;;;;;;35.60;11.13;;;;;;;;;;5081614;27;20118;-59
2022/01/14 01:41:48;;;;;;;32.10;11.30;;;;;;;;;;5081151;28;20482;-60
2022/01/14 01:44:22;;;;;;;41.17;12.25;;;;;;;;;;5061228;28;20094;-59
2022/01/14 01:46:50;;;;;;;29.73;10.60;;;;;;;;;;5061547;28;21917;-59
2022/01/14 01:49:17;;;;;;;38.85;11.38;;;;;;;;;;5057459;28;20128;-60
2022/01/14 01:51:48;;;;;;;41.60;13.23;;;;;;;;;;5061799;28;20028;-59
2022/01/14 01:54:17;;;;;;;56.60;12.75;;;;;;;;;;5062687;28;20047;-59
2022/01/14 01:56:45;;;;;;;34.22;11.05;;;;;;;;;;5061681;28;20024;-59
2022/01/14 01:59:15;;;;;;;29.38;11.85;;;;;;;;;;5065081;28;22193;-59
2022/01/14 02:01:41;;;;;;;27.08;12.07;;;;;;;;;;5044097;28;20263;-60
2022/01/14 02:04:07;;;;;;;34.30;11.00;;;;;;;;;;5079315;28;20602;-58
2022/01/14 02:06:33;;;;;;;35.92;11.80;;;;;;;;;;5053155;28;20036;-60
2022/01/14 02:08:58;;;;;;;36.78;10.68;;;;;;;;;;5081710;28;20084;-59
2022/01/14 02:11:26;;;;;;;32.88;10.60;;;;;;;;;;5047030;28;20494;-60
2022/01/14 02:13:55;;;;;;;42.17;11.27;;;;;;;;;;5046492;28;20049;-59
2022/01/14 02:25:23;;;;;;;36.55;12.18;;;;;;;;;;5081915;28;20040;-59
2022/01/14 02:27:18;;;;;;;33.70;11.70;;;;;;;;;;5057263;28;20526;-59
2022/01/14 02:29:46;;;;;;;41.33;12.95;;;;;;;;;;5078829;28;20051;-59
2022/01/14 02:32:11;;;;;;;34.85;12.48;;;;;;;;;;5059789;28;20580;-59
2022/01/14 02:34:39;;;;;;;29.35;11.85;;;;;;;;;;5044037;28;20501;-59
2022/01/14 02:37:07;;;;;;;42.80;12.70;;;;;;;;;;5043769;28;20038;-60
2022/01/14 02:39:32;;;;;;;45.08;13.05;;;;;;;;;;5061907;28;20398;-60
2022/01/14 02:42:00;;;;;;;41.15;13.40;;;;;;;;;;5080563;28;20060;-59
2022/01/14 02:44:30;;;;;;;44.03;12.60;;;;;;;;;;5061760;28;20519;-59
2022/01/14 02:47:05;;;;;;;48.33;13.52;;;;;;;;;;5063632;28;20478;-59
2022/01/14 02:49:44;;;;;;;31.02;12.80;;;;;;;;;;5076554;28;20027;-59
2022/01/14 02:52:13;;;;;;;31.05;11.95;;;;;;;;;;5078156;28;20036;-59
2022/01/14 02:55:02;;;;;;;41.33;12.93;;;;;;;;;;5068457;28;20031;-59
2022/01/14 02:57:29;;;;;;;31.92;11.25;;;;;;;;;;5082941;28;20036;-61
2022/01/14 02:59:56;;;;;;;42.97;11.88;;;;;;;;;;5063892;28;21895;-59
2022/01/14 03:02:25;;;;;;;35.15;12.57;;;;;;;;;;5082348;27;20659;-59
2022/01/14 03:04:50;;;;;;;33.92;12.90;;;;;;;;;;5056491;28;20089;-59
2022/01/14 03:07:18;;;;;;;29.20;12.13;;;;;;;;;;5048292;28;20091;-59
2022/01/14 03:09:46;;;;;;;35.58;12.05;;;;;;;;;;5063375;28;21958;-59
2022/01/14 03:12:16;;;;;;;35.35;12.48;;;;;;;;;;5051433;28;20035;-60
2022/01/14 03:14:45;;;;;;;35.90;12.48;;;;;;;;;;5067807;28;20038;-61
2022/01/14 03:17:10;;;;;;;40.40;12.57;;;;;;;;;;5051005;28;20437;-59
2022/01/14 03:19:45;;;;;;;33.75;13.55;;;;;;;;;;5086675;28;20032;-59
2022/01/14 03:22:34;;;;;;;32.38;13.30;;;;;;;;;;5065771;28;20110;-59
2022/01/14 03:27:48;;;;;;;34.40;12.80;;;;;;;;;;5084234;27;20040;-60
2022/01/14 03:30:19;;;;;;;35.63;13.52;;;;;;;;;;5046957;28;20051;-59
2022/01/14 03:32:51;;;;;;;36.78;13.52;;;;;;;;;;5082922;27;20032;-59
2022/01/14 03:35:16;;;;;;;27.80;12.75;;;;;;;;;;5064096;28;20149;-59
2022/01/14 03:37:47;;;;;;;31.40;12.35;;;;;;;;;;5032441;28;20024;-60
2022/01/14 03:40:14;;;;;;;32.90;12.77;;;;;;;;;;5067456;28;20043;-59
2022/01/14 03:42:42;;;;;;;36.65;12.77;;;;;;;;;;5082075;27;20074;-60
2022/01/14 03:45:12;;;;;;;45.13;13.73;;;;;;;;;;5083517;28;20039;-59
2022/01/14 03:47:38;;;;;;;32.03;12.68;;;;;;;;;;5083871;28;20036;-59
2022/01/14 03:50:08;;;;;;;32.10;13.30;;;;;;;;;;5083931;28;20063;-59
2022/01/14 03:52:36;;;;;;;39.63;13.50;;;;;;;;;;5083437;28;20035;-60
2022/01/14 03:55:05;;;;;;;44.53;14.50;;;;;;;;;;5082490;28;20018;-59
2022/01/14 03:57:36;;;;;;;34.45;13.52;;;;;;;;;;5064725;28;20044;-59
2022/01/14 04:00:05;;;;;;;36.95;13.13;;;;;;;;;;5047645;28;20032;-59
2022/01/14 04:02:30;;;;;;;39.13;13.30;;;;;;;;;;5064650;28;20042;-59
2022/01/14 04:05:00;;;;;;;38.50;14.20;;;;;;;;;;5049515;28;20037;-59
2022/01/14 04:07:26;;;;;;;37.30;14.52;;;;;;;;;;5064130;28;20045;-59
2022/01/14 04:09:54;;;;;;;33.00;12.30;;;;;;;;;;5083596;28;20381;-59
2022/01/14 04:12:45;;;;;;;41.88;14.23;;;;;;;;;;5079176;28;20031;-59
2022/01/14 04:18:01;;;;;;;26.80;12.25;;;;;;;;;;5081674;28;20486;-61
2022/01/14 04:20:34;;;;;;;38.00;14.23;;;;;;;;;;5083245;28;20032;-61
2022/01/14 04:23:05;;;;;;;35.08;12.60;;;;;;;;;;5066374;28;20070;-59
2022/01/14 04:25:33;;;;;;;49.55;13.68;;;;;;;;;;5065181;28;20028;-58
2022/01/14 04:28:04;;;;;;;35.90;13.50;;;;;;;;;;5082726;28;20040;-61
2022/01/14 04:30:33;;;;;;;35.45;13.32;;;;;;;;;;5082047;28;20068;-59
2022/01/14 04:33:03;;;;;;;30.75;14.05;;;;;;;;;;5060855;28;20056;-61
2022/01/14 04:35:32;;;;;;;35.40;12.70;;;;;;;;;;5079832;28;20032;-60
2022/01/14 04:37:57;;;;;;;45.63;13.45;;;;;;;;;;5066374;28;20036;-61
2022/01/14 04:40:23;;;;;;;34.10;13.27;;;;;;;;;;5064857;28;20112;-59
2022/01/14 04:42:52;;;;;;;32.60;13.85;;;;;;;;;;5083184;28;20356;-60
2022/01/14 04:48:04;;;;;;;41.42;14.07;;;;;;;;;;5081310;28;20097;-59
2022/01/14 04:50:35;;;;;;;29.00;12.02;;;;;;;;;;5079650;28;20949;-59
2022/01/14 04:53:03;;;;;;;40.75;14.95;;;;;;;;;;5080924;28;20047;-59
2022/01/14 04:55:29;;;;;;;31.52;13.52;;;;;;;;;;5063967;28;20186;-60
2022/01/14 04:58:02;;;;;;;39.15;14.85;;;;;;;;;;5066824;28;20059;-60
2022/01/14 05:00:36;;;;;;;43.13;13.75;;;;;;;;;;5067341;28;20039;-60
2022/01/14 05:03:06;;;;;;;49.53;15.10;;;;;;;;;;5080547;28;20074;-60
2022/01/14 05:05:36;;;;;;;37.90;15.60;;;;;;;;;;5047435;28;20031;-60
2022/01/14 05:08:20;;;;;;;39.45;14.75;;;;;;;;;;5064092;28;20095;-60
2022/01/14 05:13:25;;;;;;;37.40;13.25;;;;;;;;;;5079464;28;20040;-60
2022/01/14 05:15:51;;;;;;;37.38;15.00;;;;;;;;;;5063846;28;20158;-60
2022/01/14 05:18:19;;;;;;;40.15;14.82;;;;;;;;;;5044460;28;20080;-60
2022/01/14 05:20:44;;;;;;;39.97;15.85;;;;;;;;;;5064634;28;20042;-61
2022/01/14 05:23:14;;;;;;;36.90;14.27;;;;;;;;;;5046244;28;20028;-59
2022/01/14 05:25:42;;;;;;;39.83;14.63;;;;;;;;;;5083699;28;20039;-59
2022/01/14 05:28:10;;;;;;;40.05;15.02;;;;;;;;;;5045479;28;20429;-60
2022/01/14 05:30:40;;;;;;;39.10;14.93;;;;;;;;;;5081173;28;20925;-59
2022/01/14 05:33:07;;;;;;;36.03;14.32;;;;;;;;;;5064753;28;20047;-59
2022/01/14 05:35:33;;;;;;;42.97;13.93;;;;;;;;;;5064026;28;20024;-59
2022/01/14 05:38:01;;;;;;;45.65;15.45;;;;;;;;;;5066648;28;20032;-59
2022/01/14 05:40:30;;;;;;;44.85;15.23;;;;;;;;;;5081734;28;20503;-60
2022/01/14 05:42:56;;;;;;;41.80;14.10;;;;;;;;;;5070730;28;20027;-59
2022/01/14 05:45:24;;;;;;;42.58;15.45;;;;;;;;;;5043559;28;20452;-60
2022/01/14 05:48:13;;;;;;;50.30;16.40;;;;;;;;;;5060646;28;21961;-60
2022/01/14 05:50:41;;;;;;;42.42;16.15;;;;;;;;;;5079768;27;20035;-59
2022/01/14 05:53:07;;;;;;;33.47;14.23;;;;;;;;;;5079389;28;20046;-60
2022/01/14 05:55:35;;;;;;;35.92;13.35;;;;;;;;;;5066713;28;20039;-59
2022/01/14 05:58:05;;;;;;;47.17;15.52;;;;;;;;;;5049805;28;20391;-59
2022/01/14 06:00:41;;;;;;;30.45;13.90;;;;;;;;;;5061986;28;20041;-59
2022/01/14 06:03:14;;;;;;;42.55;15.15;;;;;;;;;;5080026;28;20044;-59
2022/01/14 06:05:42;;;;;;;35.33;14.80;;;;;;;;;;5063847;28;20122;-59
2022/01/14 06:08:09;;;;;;;38.65;14.30;;;;;;;;;;5046734;28;22403;-59
2022/01/14 06:10:37;;;;;;;32.83;14.88;;;;;;;;;;5048245;28;20463;-59
2022/01/14 06:13:06;;;;;;;31.55;13.98;;;;;;;;;;5063441;28;20142;-59
2022/01/14 06:15:36;;;;;;;33.13;13.52;;;;;;;;;;5046045;28;20059;-59
2022/01/14 06:18:05;;;;;;;42.28;15.15;;;;;;;;;;5078733;28;20032;-60
2022/01/14 06:20:34;;;;;;;43.25;14.02;;;;;;;;;;5062182;28;20040;-61
2022/01/14 06:23:03;;;;;;;40.83;14.55;;;;;;;;;;5080420;28;20044;-60
2022/01/14 06:25:31;;;;;;;33.08;14.65;;;;;;;;;;5059811;28;20040;-60
2022/01/14 06:27:59;;;;;;;39.55;14.25;;;;;;;;;;5063331;28;20035;-60
2022/01/14 06:30:29;;;;;;;35.50;13.43;;;;;;;;;;5032886;28;20048;-59
2022/01/14 06:32:56;;;;;;;29.25;13.50;;;;;;;;;;5047232;28;20470;-60
2022/01/14 06:35:24;;;;;;;43.95;14.10;;;;;;;;;;5080924;28;20083;-59
2022/01/14 06:37:57;;;;;;;40.30;13.02;;;;;;;;;;5078919;28;20036;-60
2022/01/14 06:40:24;;;;;;;43.63;15.05;;;;;;;;;;5047063;28;20044;-59
2022/01/14 06:42:52;;;;;;;32.10;12.60;;;;;;;;;;5079899;28;21107;-59
2022/01/14 06:45:20;;;;;;;41.70;13.98;;;;;;;;;;5065012;28;20055;-59
2022/01/14 06:47:46;;;;;;;33.22;12.63;;;;;;;;;;5080486;28;20032;-61
2022/01/14 06:50:12;;;;;;;35.17;12.63;;;;;;;;;;5044983;28;20152;-59
2022/01/14 06:52:40;;;;;;;34.55;12.10;;;;;;;;;;5078126;28;20035;-60
2022/01/14 06:55:12;;;;;;;43.10;12.18;;;;;;;;;;5078617;28;20078;-60
2022/01/14 06:57:40;;;;;;;35.03;12.20;;;;;;;;;;5077236;28;20047;-60
2022/01/14 07:00:07;;;;;;;39.05;11.93;;;;;;;;;;5082200;28;21897;-60
2022/01/14 07:02:32;;;;;;;23.13;10.45;;;;;;;;;;5080559;28;20196;-59
2022/01/14 07:05:00;;;;;;;33.95;11.70;;;;;;;;;;5081571;28;20476;-59
2022/01/14 07:07:26;;;;;;;40.83;10.30;;;;;;;;;;5050042;28;20046;-59
2022/01/14 07:09:58;;;;;;;32.13;9.80;;;;;;;;;;5079769;28;20101;-60
2022/01/14 07:12:37;;;;;;;23.80;10.52;;;;;;;;;;5051776;28;20489;-61
2022/01/14 07:15:10;;;;;;;27.80;10.70;;;;;;;;;;5080841;28;20032;-60
2022/01/14 07:17:36;;;;;;;25.00;8.88;;;;;;;;;;5083294;28;20031;-60
2022/01/14 07:20:08;;;;;;;31.63;8.77;;;;;;;;;;5047263;28;20059;-59
2022/01/14 07:22:33;;;;;;;22.75;7.90;;;;;;;;;;5047505;28;20100;-59
2022/01/14 07:25:04;;;;;;;28.42;9.15;;;;;;;;;;5078589;28;20031;-61
2022/01/14 07:27:30;;;;;;;29.60;8.90;;;;;;;;;;5063982;28;20445;-59
2022/01/14 07:29:58;;;;;;;20.85;8.15;;;;;;;;;;5058178;28;20044;-59
2022/01/14 07:32:28;;;;;;;20.02;8.10;;;;;;;;;;5060305;28;20947;-58
2022/01/14 07:34:59;;;;;;;19.95;7.55;;;;;;;;;;5045807;28;20122;-58
2022/01/14 07:37:27;;;;;;;27.45;7.60;;;;;;;;;;5076914;28;20131;-60
2022/01/14 07:39:52;;;;;;;19.90;8.23;;;;;;;;;;5084188;28;20041;-59
2022/01/14 07:42:23;;;;;;;22.73;8.00;;;;;;;;;;5066784;28;22130;-59
2022/01/14 07:44:50;;;;;;;21.42;7.53;;;;;;;;;;5082161;28;20032;-59
2022/01/14 07:47:20;;;;;;;22.98;8.23;;;;;;;;;;5083775;28;20172;-58
2022/01/14 07:49:46;;;;;;;17.63;7.30;;;;;;;;;;5085134;28;20066;-59
2022/01/14 07:52:14;;;;;;;28.05;7.60;;;;;;;;;;5084804;28;20016;-59
2022/01/14 07:54:40;;;;;;;40.28;8.25;;;;;;;;;;5083247;28;20131;-61
2022/01/14 07:57:08;;;;;;;18.17;7.03;;;;;;;;;;5079076;27;20032;-59
2022/01/14 07:59:38;;;;;;;23.33;7.75;;;;;;;;;;5075553;28;20721;-59
2022/01/14 08:02:06;;;;;;;29.85;6.70;;;;;;;;;;5050787;28;20036;-59
2022/01/14 08:04:37;;;;;;;14.88;6.57;;;;;;;;;;5063069;28;20024;-59
2022/01/14 08:07:12;;;;;;;12.48;6.47;;;;;;;;;;5082394;28;20375;-59
2022/01/14 08:09:46;;;;;;;19.15;6.40;;;;;;;;;;5047229;28;20023;-59
2022/01/14 08:12:16;;;;;;;18.55;6.53;;;;;;;;;;5061691;28;20138;-59
2022/01/14 08:14:44;;;;;;;11.90;5.93;;;;;;;;;;5067526;28;20040;-59
2022/01/14 08:17:17;;;;;;;18.48;6.65;;;;;;;;;;5056603;27;20031;-59
2022/01/14 08:19:45;;;;;;;22.38;6.55;;;;;;;;;;5064943;28;20023;-59
2022/01/14 08:22:16;;;;;;;25.45;6.20;;;;;;;;;;5050257;28;20043;-59
2022/01/14 08:24:53;;;;;;;14.77;5.22;;;;;;;;;;5065544;28;20589;-59
2022/01/14 08:27:19;;;;;;;32.50;6.03;;;;;;;;;;5083946;28;20035;-59
2022/01/14 08:29:47;;;;;;;20.77;6.32;;;;;;;;;;5065834;28;20055;-59
2022/01/14 08:32:16;;;;;;;19.92;6.47;;;;;;;;;;5081635;28;20028;-59
2022/01/14 08:34:41;;;;;;;17.80;6.22;;;;;;;;;;5062728;28;20049;-60
2022/01/14 08:37:11;;;;;;;24.05;6.72;;;;;;;;;;5078982;28;20219;-59
2022/01/14 08:39:40;;;;;;;11.40;5.25;;;;;;;;;;5062710;28;20056;-58
2022/01/14 08:42:10;;;;;;;18.27;5.80;;;;;;;;;;5063555;28;20182;-60
2022/01/14 08:44:36;;;;;;;21.65;6.05;;;;;;;;;;5083202;28;20039;-59
2022/01/14 08:47:09;;;;;;;16.23;6.13;;;;;;;;;;5063612;28;20144;-59
2022/01/14 08:49:39;;;;;;;;;;;;;;;;;;5040610;28;20530;-59
2022/01/14 08:52:10;;;;;;;18.23;5.25;;;;;;;;;;5078417;28;19916;-59
2022/01/14 08:54:37;;;;;;;10.68;4.85;;;;;;;;;;5066907;28;20124;-59
2022/01/14 08:57:05;;;;;;;15.18;4.40;;;;;;;;;;5077731;28;20023;-59
2022/01/14 08:59:38;;;;;;;14.73;4.90;;;;;;;;;;5045959;28;20027;-60
2022/01/14 09:02:06;;;;;;;16.15;4.47;;;;;;;;;;5076946;28;20027;-60
2022/01/14 09:04:36;;;;;;;12.07;4.63;;;;;;;;;;5081388;28;20031;-60
2022/01/14 09:07:01;;;;;;;18.52;5.13;;;;;;;;;;5061760;28;20848;-59
2022/01/14 09:09:29;;;;;;;11.75;4.38;;;;;;;;;;5076863;28;20027;-60
2022/01/14 09:11:55;;;;;;;16.48;4.82;;;;;;;;;;5060475;28;20023;-59
2022/01/14 09:14:25;;;;;;;16.23;4.43;;;;;;;;;;5066763;28;20028;-59
2022/01/14 09:16:51;;;;;;;16.02;4.07;;;;;;;;;;5077514;28;20033;-59
2022/01/14 09:19:20;;;;;;;16.42;4.03;;;;;;;;;;5076276;27;20084;-60
2022/01/14 09:21:51;;;;;;;12.18;3.72;;;;;;;;;;5064147;28;20061;-60
2022/01/14 09:24:17;;;;;;;12.05;3.97;;;;;;;;;;5061778;28;20047;-60
2022/01/14 09:26:44;;;;;;;11.98;3.60;;;;;;;;;;5046797;28;20601;-60
2022/01/14 09:29:14;;;;;;;16.00;3.83;;;;;;;;;;5048219;28;20289;-60
2022/01/14 09:31:46;;;;;;;11.57;3.33;;;;;;;;;;5078494;28;20056;-60
2022/01/14 09:34:21;;;;;;;13.27;3.45;;;;;;;;;;5060368;28;20119;-60
2022/01/14 09:36:49;;;;;;;12.63;3.10;;;;;;;;;;5053018;28;20106;-59
2022/01/14 09:39:17;;;;;;;15.38;2.92;;;;;;;;;;5061851;28;20146;-59
2022/01/14 09:41:43;;;;;;;10.80;2.65;;;;;;;;;;5072909;28;20024;-59
2022/01/14 09:44:15;;;;;;;12.73;2.95;;;;;;;;;;5073110;28;20104;-59
2022/01/14 09:46:43;;;;;;;8.60;2.58;;;;;;;;;;5055155;28;20046;-61
2022/01/14 09:49:15;;;;;;;16.58;3.20;;;;;;;;;;5062236;28;20024;-60
2022/01/14 09:51:41;;;;;;;9.50;2.65;;;;;;;;;;5076668;28;20067;-60
2022/01/14 09:54:10;;;;;;;9.38;2.90;;;;;;;;;;5076880;28;20025;-60
2022/01/14 09:56:39;;;;;;;8.43;3.45;;;;;;;;;;5062516;28;20098;-61
2022/01/14 09:59:07;;;;;;;9.55;2.28;;;;;;;;;;5078425;28;20019;-59
2022/01/14 10:01:41;;;;;;;17.48;2.72;;;;;;;;;;5079501;28;20051;-61
2022/01/14 10:04:15;;;;;;;10.45;2.55;;;;;;;;;;5081798;28;20115;-61
2022/01/14 10:06:42;;;;;;;13.73;2.93;;;;;;;;;;5078344;28;20031;-60
2022/01/14 10:09:10;;;;;;;6.25;2.25;;;;;;;;;;5060413;28;20028;-60
2022/01/14 10:11:36;;;;;;;16.25;2.72;;;;;;;;;;5067759;28;20042;-60
2022/01/14 10:14:21;;;;;;;14.65;2.47;;;;;;;;;;5076203;28;20055;-60
2022/01/14 10:16:54;;;;;;;11.43;2.13;;;;;;;;;;5045327;28;20077;-59
2022/01/14 10:19:26;;;;;;;14.90;2.08;;;;;;;;;;5080054;28;21111;-58
2022/01/14 10:21:57;;;;;;;15.40;2.47;;;;;;;;;;5051090;28;20063;-59
2022/01/14 10:24:23;;;;;;;9.43;2.03;;;;;;;;;;5061152;28;20136;-60
2022/01/14 10:26:50;;;;;;;9.82;1.88;;;;;;;;;;5059120;28;20050;-60
2022/01/14 10:29:26;;;;;;;9.85;1.92;;;;;;;;;;5050461;28;22051;-59
2022/01/14 10:31:57;;;;;;;8.50;2.20;;;;;;;;;;5078857;28;20418;-60
2022/01/14 10:34:23;;;;;;;12.70;1.85;;;;;;;;;;5080533;28;20064;-60
2022/01/14 10:36:51;;;;;;;11.93;2.00;;;;;;;;;;5046873;28;20060;-60
2022/01/14 10:39:24;;;;;;;17.05;2.50;;;;;;;;;;5061988;28;20088;-59
2022/01/14 10:41:51;;;;;;;;;;;;;;;;;;5081113;28;20107;-59
2022/01/14 10:44:23;;;;;;;13.82;2.08;;;;;;;;;;5061025;28;19963;-59
2022/01/14 10:47:09;;;;;;;12.82;2.17;;;;;;;;;;5079644;28;20031;-60
2022/01/14 10:49:40;;;;;;;10.65;2.63;;;;;;;;;;5081754;28;20621;-60
2022/01/14 10:52:12;;;;;;;11.48;1.90;;;;;;;;;;5081156;28;20114;-60
2022/01/14 10:54:45;;;;;;;8.63;2.50;;;;;;;;;;5082625;28;20873;-59
2022/01/14 10:57:18;;;;;;;12.55;2.38;;;;;;;;;;5059663;28;20039;-59
2022/01/14 10:59:52;;;;;;;13.73;2.45;;;;;;;;;;5081280;28;20040;-59
2022/01/14 11:02:38;;;;;;;12.35;3.03;;;;;;;;;;5060420;28;22036;-59
2022/01/14 11:05:07;;;;;;;19.17;2.65;;;;;;;;;;5082939;28;20467;-59
2022/01/14 11:07:35;;;;;;;6.93;1.98;;;;;;;;;;5048237;28;22061;-60
2022/01/14 11:10:12;;;;;;;9.98;2.25;;;;;;;;;;5062611;28;20046;-59
2022/01/14 11:12:43;;;;;;;7.05;2.17;;;;;;;;;;5063002;28;20312;-60
2022/01/14 11:15:14;;;;;;;15.15;2.20;;;;;;;;;;5050012;28;21849;-59
2022/01/14 11:17:46;;;;;;;15.27;2.78;;;;;;;;;;5057863;28;20063;-59
2022/01/14 11:20:21;;;;;;;9.98;2.20;;;;;;;;;;5066044;28;20477;-59
2022/01/14 11:25:36;;;;;;;16.75;3.65;;;;;;;;;;5065490;28;20062;-59
2022/01/14 11:28:04;;;;;;;16.58;3.05;;;;;;;;;;5064100;28;20019;-59
2022/01/14 11:30:34;;;;;;;18.75;3.90;;;;;;;;;;5069346;28;20678;-58
2022/01/14 11:33:03;;;;;;;15.32;3.28;;;;;;;;;;5082035;28;20984;-60
2022/01/14 11:35:32;;;;;;;16.90;3.25;;;;;;;;;;5065827;28;20039;-60
2022/01/14 11:38:00;;;;;;;13.52;2.78;;;;;;;;;;5079288;28;20055;-61
2022/01/14 11:40:45;;;;;;;9.20;2.72;;;;;;;;;;5063825;28;20452;-60
2022/01/14 11:43:11;;;;;;;11.75;2.80;;;;;;;;;;5082522;28;20035;-59
2022/01/14 11:45:43;;;;;;;16.73;2.78;;;;;;;;;;5085095;28;20028;-59
2022/01/14 11:48:31;;;;;;;10.52;2.88;;;;;;;;;;5083092;28;20032;-59
2022/01/14 11:51:01;;;;;;;11.95;3.35;;;;;;;;;;5066529;28;20032;-58
2022/01/14 11:53:31;;;;;;;23.20;3.00;;;;;;;;;;5050392;28;20028;-58
2022/01/14 11:55:57;;;;;;;18.50;3.67;;;;;;;;;;5073351;28;20028;-59
2022/01/14 11:58:30;;;;;;;15.57;2.75;;;;;;;;;;5064674;28;22017;-59
2022/01/14 12:00:55;;;;;;;8.90;3.30;;;;;;;;;;5064584;28;20117;-59
2022/01/14 12:03:29;;;;;;;12.02;4.72;;;;;;;;;;5083513;28;20024;-60
2022/01/14 12:06:07;;;;;;;10.32;2.50;;;;;;;;;;5068070;28;20031;-59
2022/01/14 12:08:36;;;;;;;16.25;3.15;;;;;;;;;;5085165;28;20027;-59
2022/01/14 12:11:09;;;;;;;17.25;3.35;;;;;;;;;;5049927;28;20602;-59
2022/01/14 12:14:00;;;;;;;8.90;3.17;;;;;;;;;;5084933;28;21995;-61
2022/01/14 12:19:07;;;;;;;23.10;3.20;;;;;;;;;;5082784;28;20065;-59
2022/01/14 12:21:40;;;;;;;13.57;2.83;;;;;;;;;;5082085;28;20039;-59
2022/01/14 12:24:18;;;;;;;15.43;3.53;;;;;;;;;;5046183;28;20430;-59
2022/01/14 12:27:00;;;;;;;7.57;2.05;;;;;;;;;;5039794;28;20364;-58
2022/01/14 12:29:32;;;;;;;20.25;2.88;;;;;;;;;;5041614;28;20056;-59
2022/01/14 12:32:00;;;;;;;14.70;3.00;;;;;;;;;;5025115;28;20055;-59
2022/01/14 12:34:29;;;;;;;13.32;2.55;;;;;;;;;;5039979;28;20130;-59
2022/01/14 12:36:58;;;;;;;23.33;3.50;;;;;;;;;;5025274;28;20685;-59
2022/01/14 12:39:24;;;;;;;11.93;2.83;;;;;;;;;;5006398;28;20148;-59
2022/01/14 12:41:53;;;;;;;14.77;2.78;;;;;;;;;;5038739;28;21977;-59
2022/01/14 12:44:25;;;;;;;16.70;2.42;;;;;;;;;;5040199;28;20032;-61
2022/01/14 12:47:06;;;;;;;17.20;2.47;;;;;;;;;;5042514;28;21020;-60
2022/01/14 12:49:37;;;;;;;22.27;3.40;;;;;;;;;;5024543;28;20037;-60
2022/01/14 12:52:04;;;;;;;18.02;2.90;;;;;;;;;;5025534;28;20044;-59
2022/01/14 12:54:33;;;;;;;17.13;2.83;;;;;;;;;;5023697;28;20024;-61
2022/01/14 12:57:01;;;;;;;12.60;3.17;;;;;;;;;;5040375;28;20510;-60
2022/01/14 12:59:38;;;;;;;13.13;2.47;;;;;;;;;;5051230;28;20158;-61
2022/01/14 13:02:05;;;;;;;14.00;2.97;;;;;;;;;;5081721;27;20062;-60
2022/01/14 13:04:36;;;;;;;15.98;3.20;;;;;;;;;;5065387;28;20039;-60
2022/01/14 13:07:03;;;;;;;17.48;3.00;;;;;;;;;;5062329;28;20498;-59
2022/01/14 13:09:34;;;;;;;19.45;3.60;;;;;;;;;;5081552;28;20964;-60
2022/01/14 13:12:17;;;;;;;16.90;2.50;;;;;;;;;;5081733;28;20639;-59
2022/01/14 13:14:49;;;;;;;13.65;3.90;;;;;;;;;;5061153;28;20031;-59
2022/01/14 13:17:18;;;;;;;12.80;3.33;;;;;;;;;;5066255;28;20062;-59
2022/01/14 13:19:44;;;;;;;12.70;3.22;;;;;;;;;;5080355;28;20549;-60
2022/01/14 13:22:13;;;;;;;27.40;3.25;;;;;;;;;;5047681;28;20035;-60
2022/01/14 13:24:43;;;;;;;24.83;3.47;;;;;;;;;;5065968;28;20024;-60
2022/01/14 13:27:16;;;;;;;27.40;3.92;;;;;;;;;;5082260;27;20024;-59
2022/01/14 13:29:46;;;;;;;20.58;3.17;;;;;;;;;;5078554;28;20024;-61
2022/01/14 13:32:13;;;;;;;20.75;3.40;;;;;;;;;;5047698;28;20158;-59
2022/01/14 13:34:43;;;;;;;18.58;3.33;;;;;;;;;;5048833;28;20038;-59
2022/01/14 13:37:09;;;;;;;26.55;4.07;;;;;;;;;;5063030;27;20039;-60
2022/01/14 13:39:35;;;;;;;14.80;3.25;;;;;;;;;;5078488;28;20092;-60
2022/01/14 13:42:00;;;;;;;19.48;2.85;;;;;;;;;;5060705;27;20036;-59
2022/01/14 13:44:32;;;;;;;29.58;3.60;;;;;;;;;;5058020;28;20122;-59
2022/01/14 13:47:06;;;;;;;17.52;3.35;;;;;;;;;;5079454;28;20110;-59
2022/01/14 13:49:35;;;;;;;21.88;3.72;;;;;;;;;;5059933;28;20122;-58
2022/01/14 13:52:07;;;;;;;26.30;3.67;;;;;;;;;;5078063;28;20031;-59
2022/01/14 13:54:35;;;;;;;24.92;4.18;;;;;;;;;;5064924;28;20030;-59
2022/01/14 13:57:15;;;;;;;25.13;3.75;;;;;;;;;;5078831;28;20498;-61
2022/01/14 13:59:43;;;;;;;15.63;3.60;;;;;;;;;;5081163;28;20810;-60
2022/01/14 14:02:20;;;;;;;20.83;3.83;;;;;;;;;;5076665;28;20442;-59
2022/01/14 14:04:49;;;;;;;21.65;3.72;;;;;;;;;;5080538;28;20421;-60
2022/01/14 14:07:20;;;;;;;12.18;3.65;;;;;;;;;;5056187;28;20031;-60
2022/01/14 14:10:17;;;;;;;16.03;3.47;;;;;;;;;;5064850;28;20051;-59
2022/01/14 14:12:46;;;;;;;12.75;2.88;;;;;;;;;;5060100;28;20062;-59
2022/01/14 14:18:12;;;;;;;28.67;2.97;;;;;;;;;;5084955;28;20036;-60
2022/01/14 14:20:40;;;;;;;23.40;3.75;;;;;;;;;;5085072;28;20027;-59
2022/01/14 14:23:13;;;;;;;19.77;3.17;;;;;;;;;;5083979;28;20035;-59
2022/01/14 14:25:42;;;;;;;19.42;3.88;;;;;;;;;;5085925;28;20035;-60
2022/01/14 14:28:16;;;;;;;24.35;3.38;;;;;;;;;;5067934;28;20520;-60
2022/01/14 14:30:51;;;;;;;22.80;4.00;;;;;;;;;;5084369;28;20039;-59
2022/01/14 14:33:21;;;;;;;19.52;3.15;;;;;;;;;;5075599;28;20035;-59
2022/01/14 14:35:49;;;;;;;13.65;3.05;;;;;;;;;;5080191;28;21789;-60
2022/01/14 14:38:23;;;;;;;8.55;3.00;;;;;;;;;;5080579;28;21033;-61
2022/01/14 14:40:51;;;;;;;20.20;4.28;;;;;;;;;;5064009;28;20046;-61
2022/01/14 14:43:22;;;;;;;17.70;3.63;;;;;;;;;;5064891;28;20106;-59
2022/01/14 14:45:57;;;;;;;22.05;3.67;;;;;;;;;;5085029;28;20031;-60
2022/01/14 14:48:27;;;;;;;15.43;3.55;;;;;;;;;;5056302;28;20360;-62
2022/01/14 14:50:55;;;;;;;15.23;2.88;;;;;;;;;;5055049;28;20393;-61
2022/01/14 14:53:24;;;;;;;19.83;3.97;;;;;;;;;;5089088;27;20015;-61
2022/01/14 14:55:50;;;;;;;34.42;4.38;;;;;;;;;;5070802;28;20059;-60
2022/01/14 14:58:20;;;;;;;21.20;3.40;;;;;;;;;;5071835;28;20438;-60
2022/01/14 15:00:46;;;;;;;23.55;4.15;;;;;;;;;;5078235;28;20040;-59
2022/01/14 15:03:15;;;;;;;29.55;4.50;;;;;;;;;;5070364;28;20027;-59
2022/01/14 15:05:43;;;;;;;12.95;3.85;;;;;;;;;;5087969;28;20035;-59
2022/01/14 15:08:08;;;;;;;26.02;4.47;;;;;;;;;;5070247;28;20075;-59
2022/01/14 15:10:36;;;;;;;29.08;4.15;;;;;;;;;;5073591;28;20264;-62
2022/01/14 15:13:04;;;;;;;30.55;4.70;;;;;;;;;;5066830;28;20028;-59
2022/01/14 15:15:47;;;;;;;26.60;3.97;;;;;;;;;;5071235;28;20035;-60
2022/01/14 15:18:15;;;;;;;14.15;3.78;;;;;;;;;;5087680;28;20075;-60
2022/01/14 15:20:42;;;;;;;18.90;4.63;;;;;;;;;;5068220;28;20038;-60
2022/01/14 15:23:10;;;;;;;19.17;4.00;;;;;;;;;;5066892;28;20032;-60